Terminal Aerodrome Forecast
Issued by NWS Melbourne, FL

Home | Current Version | Previous Version | Text Only | Print | Product List | Glossary On
Versions: 1 2 3 4 5 6 7 8 9 10 11 12 13 14 15
000
FTUS42 KMLB 210500
TAFMLB
TAF
KMLB 210535Z 2106/2206 20004KT P6SM SCT050 OVC100
      TEMPO 2109/2112 5SM BR FEW010
     FM211800 15008KT P6SM SCT035 OVC060
     FM220200 20004KT P6SM SCT025 OVC050=

USA.gov is the U.S. government's official web portal to all federal, state and local government web resources and services.